createdAt,value
2022-12-22T00:02:38.392Z,3.15
2022-12-22T00:05:39.844Z,3.90
2022-12-22T00:08:25.801Z,2.33
2022-12-22T00:11:13.013Z,1.98
2022-12-22T00:14:03.431Z,1.90
2022-12-22T00:16:56.969Z,7.82
2022-12-22T00:19:42.937Z,1.50
2022-12-22T00:22:33.043Z,1.58
2022-12-22T00:25:18.819Z,5.82
2022-12-22T00:28:04.440Z,2.58
2022-12-22T00:30:50.068Z,1.90
2022-12-22T00:33:38.871Z,1.70
2022-12-22T00:36:26.549Z,3.08
2022-12-22T00:39:11.998Z,3.72
2022-12-22T00:41:57.619Z,2.05
2022-12-22T00:44:43.209Z,2.80
2022-12-22T00:47:33.560Z,1.02
2022-12-22T00:50:19.397Z,1.17
2022-12-22T00:53:05.163Z,2.45
2022-12-22T00:55:50.891Z,3.80
2022-12-22T00:58:38.560Z,1.02
2022-12-22T01:01:24.662Z,2.13
2022-12-22T01:04:10.465Z,1.50
2022-12-22T01:06:57.054Z,2.13
2022-12-22T01:09:42.706Z,4.43
2022-12-22T01:12:43.392Z,2.65
2022-12-22T01:15:35.852Z,2.20
2022-12-22T01:21:07.097Z,1.58
2022-12-22T01:23:52.535Z,3.13
2022-12-22T01:26:38.517Z,0.85
2022-12-22T01:29:24.568Z,2.92
2022-12-22T01:32:10.384Z,4.00
2022-12-22T01:34:56.595Z,0.65
2022-12-22T01:37:42.525Z,1.20
2022-12-22T01:40:34.138Z,1.58
2022-12-22T01:43:19.573Z,1.10
2022-12-22T01:46:05.181Z,2.15
2022-12-22T01:48:51.693Z,1.70
2022-12-22T01:51:41.222Z,1.00
2022-12-22T01:54:28.252Z,2.67
2022-12-22T01:57:14.529Z,5.40
2022-12-22T02:00:00.755Z,1.25
2022-12-22T02:02:46.857Z,1.55
2022-12-22T02:05:35.066Z,1.85
2022-12-22T02:08:31.801Z,3.08
2022-12-22T02:11:54.513Z,3.65
2022-12-22T02:15:06.561Z,1.85
2022-12-22T02:18:09.845Z,4.57
2022-12-22T02:21:32.177Z,1.85
2022-12-22T02:24:41.927Z,1.23
2022-12-22T02:27:29.129Z,1.15
2022-12-22T02:30:19.214Z,1.15
2022-12-22T02:33:09.868Z,2.67
2022-12-22T02:36:17.653Z,0.82
2022-12-22T02:39:12.565Z,4.03
2022-12-22T02:42:03.435Z,1.65
2022-12-22T02:45:26.223Z,3.22
2022-12-22T02:48:39.298Z,2.58
2022-12-22T02:51:30.428Z,2.47
2022-12-22T02:54:16.940Z,1.10
2022-12-22T02:57:02.965Z,2.35
2022-12-22T02:59:48.779Z,1.15
2022-12-22T03:02:34.282Z,5.05
2022-12-22T03:05:19.819Z,2.85
2022-12-22T03:08:08.559Z,1.23
2022-12-22T03:10:55.040Z,4.22
2022-12-22T03:13:40.918Z,3.47
2022-12-22T03:16:26.370Z,0.90
2022-12-22T03:19:12.157Z,1.35
2022-12-22T03:21:58.220Z,2.38
2022-12-22T03:24:43.790Z,2.50
2022-12-22T03:27:10.849Z,3.35
2022-12-22T03:29:38.048Z,1.25
2022-12-22T03:32:05.535Z,1.35
2022-12-22T03:34:32.501Z,1.13
2022-12-22T03:36:59.567Z,2.08
2022-12-22T03:39:26.475Z,3.58
2022-12-22T03:42:12.292Z,2.00
2022-12-22T03:44:58.432Z,2.03
2022-12-22T03:47:25.388Z,3.95
2022-12-22T03:49:52.294Z,2.08
2022-12-22T03:52:19.338Z,2.17
2022-12-22T03:54:46.263Z,2.28
2022-12-22T03:57:13.125Z,3.35
2022-12-22T03:59:40.278Z,5.47
2022-12-22T04:02:08.158Z,2.95
2022-12-22T04:04:35.393Z,4.25
2022-12-22T04:07:02.287Z,2.88
2022-12-22T04:09:29.387Z,3.08
2022-12-22T04:12:14.751Z,2.83
2022-12-22T04:14:41.731Z,2.65
2022-12-22T04:17:09.919Z,3.65
2022-12-22T04:19:37.052Z,2.58
2022-12-22T04:22:04.717Z,1.95
2022-12-22T04:24:31.693Z,4.78
2022-12-22T04:26:58.715Z,4.95
2022-12-22T04:29:25.707Z,3.72
2022-12-22T04:31:52.910Z,2.75
2022-12-22T04:34:19.941Z,4.15
2022-12-22T04:36:47.280Z,3.40
2022-12-22T04:39:14.249Z,4.03
2022-12-22T04:41:41.421Z,3.50
2022-12-22T04:44:08.581Z,6.50
2022-12-22T04:46:35.675Z,4.70
2022-12-22T04:49:02.995Z,9.80
2022-12-22T04:51:30.069Z,5.18
2022-12-22T04:53:57.158Z,3.95
2022-12-22T04:56:24.153Z,5.50
2022-12-22T04:58:51.130Z,4.03
2022-12-22T05:01:19.296Z,5.30
2022-12-22T05:03:47.276Z,5.63
2022-12-22T05:06:14.925Z,5.88
2022-12-22T05:08:43.742Z,4.65
2022-12-22T05:11:10.999Z,6.35
2022-12-22T05:13:38.434Z,6.05
2022-12-22T05:16:13.902Z,10.90
2022-12-22T05:18:45.106Z,6.75
2022-12-22T05:21:21.152Z,4.47
2022-12-22T05:23:48.910Z,4.30
2022-12-22T05:26:17.425Z,5.00
2022-12-22T05:28:46.494Z,5.40
2022-12-22T05:31:19.856Z,7.95
2022-12-22T05:33:47.375Z,11.57
2022-12-22T05:36:15.250Z,15.85
2022-12-22T05:38:44.560Z,16.40
2022-12-22T05:41:12.077Z,21.85
2022-12-22T05:43:39.528Z,14.15
2022-12-22T05:46:09.346Z,11.15
2022-12-22T05:48:39.321Z,7.10
2022-12-22T05:51:08.707Z,13.10
2022-12-22T05:53:36.695Z,6.20
2022-12-22T05:56:03.765Z,4.82
2022-12-22T05:58:30.738Z,5.82
2022-12-22T06:00:59.534Z,4.22
2022-12-22T06:03:27.509Z,4.60
2022-12-22T06:05:55.386Z,7.40
2022-12-22T06:08:22.903Z,6.93
2022-12-22T06:10:50.063Z,6.28
2022-12-22T06:13:17.276Z,5.95
2022-12-22T06:15:44.441Z,9.02
2022-12-22T06:18:12.426Z,9.68
2022-12-22T06:20:39.450Z,10.00
2022-12-22T06:23:06.531Z,10.75
2022-12-22T06:25:33.651Z,11.70
2022-12-22T06:28:01.075Z,11.38
2022-12-22T06:30:33.269Z,11.57
2022-12-22T06:33:01.310Z,14.30
2022-12-22T06:35:29.450Z,11.63
2022-12-22T06:37:56.469Z,12.90
2022-12-22T06:40:23.424Z,11.38
2022-12-22T06:43:09.893Z,12.23
2022-12-22T06:45:42.311Z,12.93
2022-12-22T06:48:11.075Z,15.35
2022-12-22T06:50:38.650Z,14.63
2022-12-22T06:53:06.780Z,18.92
2022-12-22T06:55:33.919Z,18.58
2022-12-22T06:58:00.957Z,17.83
2022-12-22T07:00:29.336Z,16.70
2022-12-22T07:02:56.970Z,18.02
2022-12-22T07:05:24.580Z,22.55
2022-12-22T07:07:52.774Z,24.92
2022-12-22T07:10:41.651Z,21.17
2022-12-22T07:13:19.785Z,21.85
2022-12-22T07:15:53.797Z,25.58
2022-12-22T07:18:27.651Z,28.00
2022-12-22T07:20:55.004Z,31.25
2022-12-22T07:23:22.108Z,34.53
2022-12-22T07:25:49.197Z,36.88
2022-12-22T07:28:20.682Z,39.65
2022-12-22T07:33:16.547Z,41.17
2022-12-22T07:35:43.870Z,37.35
2022-12-22T07:38:11.396Z,44.00
2022-12-22T07:40:42.171Z,39.67
2022-12-22T07:43:10.134Z,40.78
2022-12-22T07:45:37.271Z,37.90
2022-12-22T07:48:24.709Z,41.15
2022-12-22T07:50:51.743Z,42.13
2022-12-22T07:53:18.985Z,43.45
2022-12-22T07:55:46.296Z,47.00
2022-12-22T07:58:13.251Z,49.00
2022-12-22T08:00:40.325Z,51.55
2022-12-22T08:03:07.567Z,45.17
2022-12-22T08:05:37.263Z,50.50
2022-12-22T08:08:04.536Z,48.55
2022-12-22T08:10:32.987Z,50.45
2022-12-22T08:13:00.001Z,55.00
2022-12-22T08:15:27.025Z,50.70
2022-12-22T08:17:54.276Z,61.72
2022-12-22T08:20:21.215Z,52.95
2022-12-22T08:22:48.191Z,52.45
2022-12-22T08:25:15.177Z,58.78
2022-12-22T08:27:49.630Z,53.17
2022-12-22T08:30:16.804Z,61.03
2022-12-22T08:32:46.642Z,61.42
2022-12-22T08:35:13.688Z,59.97
2022-12-22T08:37:44.159Z,65.47
2022-12-22T08:40:18.451Z,65.90
2022-12-22T08:42:47.080Z,68.95
2022-12-22T08:45:14.262Z,71.20
2022-12-22T08:47:41.598Z,74.60
2022-12-22T08:50:09.336Z,77.68
2022-12-22T08:52:36.494Z,80.43
2022-12-22T08:55:04.065Z,74.43
2022-12-22T08:57:31.155Z,76.90
2022-12-22T08:59:58.524Z,72.95
2022-12-22T09:02:25.728Z,79.63
2022-12-22T09:04:52.787Z,78.70
2022-12-22T09:07:19.777Z,86.68
2022-12-22T09:09:48.415Z,82.38
2022-12-22T09:12:15.713Z,78.15
2022-12-22T09:14:42.638Z,72.05
2022-12-22T09:17:09.741Z,66.88
2022-12-22T09:19:36.894Z,60.35
2022-12-22T09:22:05.220Z,73.85
2022-12-22T09:24:32.559Z,57.10
2022-12-22T09:27:00.139Z,62.25
2022-12-22T09:29:27.462Z,62.47
2022-12-22T09:31:54.470Z,67.85
2022-12-22T09:34:21.486Z,67.15
2022-12-22T09:36:48.686Z,66.03
2022-12-22T09:39:16.399Z,64.60
2022-12-22T09:41:51.435Z,59.22
2022-12-22T09:44:21.142Z,62.83
2022-12-22T09:46:48.861Z,65.60
2022-12-22T09:49:18.256Z,67.18
2022-12-22T09:51:56.249Z,64.57
2022-12-22T09:54:24.705Z,52.97
2022-12-22T09:56:51.885Z,63.90
2022-12-22T09:59:26.316Z,64.53
2022-12-22T10:02:19.043Z,65.63
2022-12-22T10:04:58.384Z,55.55
2022-12-22T10:07:34.731Z,54.78
2022-12-22T10:10:26.405Z,41.25
2022-12-22T10:12:58.372Z,43.00
2022-12-22T10:15:26.391Z,42.78
2022-12-22T10:18:10.191Z,37.10
2022-12-22T10:20:39.763Z,36.65
2022-12-22T10:23:29.548Z,34.70
2022-12-22T10:29:10.905Z,34.00
2022-12-22T10:32:00.976Z,30.60
2022-12-22T10:34:28.829Z,30.80
2022-12-22T10:37:03.749Z,26.88
2022-12-22T10:39:36.595Z,28.00
2022-12-22T10:42:16.314Z,29.90
2022-12-22T10:44:49.530Z,29.30
2022-12-22T10:47:21.482Z,29.15
2022-12-22T10:52:27.410Z,27.17
2022-12-22T10:55:36.153Z,27.27
2022-12-22T10:58:16.858Z,23.38
2022-12-22T11:00:45.195Z,26.20
2022-12-22T11:03:19.118Z,28.73
2022-12-22T11:05:51.983Z,26.75
2022-12-22T11:08:20.912Z,22.83
2022-12-22T11:11:35.679Z,18.25
2022-12-22T11:14:23.374Z,19.65
2022-12-22T11:17:15.026Z,24.77
2022-12-22T11:19:42.665Z,22.10
2022-12-22T11:22:34.794Z,23.35
2022-12-22T11:25:29.822Z,18.58
2022-12-22T11:28:35.361Z,12.27
2022-12-22T11:31:17.751Z,8.65
2022-12-22T11:36:39.089Z,7.10
2022-12-22T11:39:19.800Z,7.00
2022-12-22T11:42:19.227Z,7.93
2022-12-22T11:45:11.111Z,7.25
2022-12-22T11:50:59.082Z,11.07
2022-12-22T11:53:48.718Z,7.40
2022-12-22T11:56:26.576Z,11.45
2022-12-22T11:59:25.637Z,13.63
2022-12-22T12:02:36.278Z,10.20
2022-12-22T12:05:14.868Z,12.85
2022-12-22T12:07:45.950Z,11.38
2022-12-22T12:10:22.610Z,11.02
2022-12-22T12:12:59.178Z,13.07
2022-12-22T12:15:38.047Z,12.90
2022-12-22T12:18:26.925Z,14.55
2022-12-22T12:21:24.422Z,10.20
2022-12-22T12:24:21.979Z,9.20
2022-12-22T12:27:46.027Z,6.90
2022-12-22T12:33:48.080Z,2.85
2022-12-22T12:36:21.441Z,3.75
2022-12-22T12:39:09.749Z,4.05
2022-12-22T12:41:46.065Z,3.88
2022-12-22T12:44:16.464Z,4.20
2022-12-22T12:46:55.296Z,4.47
2022-12-22T12:49:34.479Z,3.50
2022-12-22T12:52:05.117Z,3.55
2022-12-22T12:54:32.808Z,2.97
2022-12-22T12:57:21.079Z,5.05
2022-12-22T12:59:49.908Z,3.17
2022-12-22T13:02:29.538Z,4.88
2022-12-22T13:05:13.300Z,7.97
2022-12-22T13:08:06.637Z,5.88
2022-12-22T13:11:04.551Z,2.90
2022-12-22T13:13:31.626Z,4.95
2022-12-22T13:16:02.022Z,6.07
2022-12-22T13:18:34.936Z,4.38
2022-12-22T13:21:50.351Z,2.88
2022-12-22T13:24:22.962Z,5.22
2022-12-22T13:26:44.258Z,6.35
2022-12-22T13:29:23.105Z,4.63
2022-12-22T13:32:05.281Z,2.33
2022-12-22T13:35:28.364Z,2.75
2022-12-22T13:37:42.525Z,1.77
2022-12-22T13:40:22.582Z,2.55
2022-12-22T13:42:54.447Z,1.92
2022-12-22T13:45:44.042Z,5.13
2022-12-22T13:48:19.283Z,1.60
2022-12-22T13:50:50.974Z,1.58
2022-12-22T13:53:58.630Z,1.35
2022-12-22T13:56:25.180Z,1.73
2022-12-22T13:58:58.976Z,1.55
2022-12-22T14:01:27.104Z,4.93
2022-12-22T14:04:03.029Z,2.05
2022-12-22T14:06:38.944Z,2.67
2022-12-22T14:09:23.857Z,2.80
2022-12-22T14:11:53.335Z,2.60
2022-12-22T14:14:42.494Z,3.83
2022-12-22T14:17:26.295Z,6.15
2022-12-22T14:19:56.538Z,4.32
2022-12-22T14:22:47.275Z,3.75
2022-12-22T14:25:19.703Z,3.50
2022-12-22T14:27:53.063Z,2.53
2022-12-22T14:30:44.404Z,3.67
2022-12-22T14:33:28.428Z,4.30
2022-12-22T14:36:27.829Z,6.93
2022-12-22T14:39:05.467Z,7.13
2022-12-22T14:41:42.743Z,9.40
2022-12-22T14:44:26.993Z,16.95
2022-12-22T14:47:12.503Z,7.38
2022-12-22T14:49:59.966Z,12.43
2022-12-22T14:52:46.585Z,11.50
2022-12-22T14:55:35.327Z,12.88
2022-12-22T14:58:10.473Z,8.55
2022-12-22T15:00:46.321Z,10.38
2022-12-22T15:03:34.270Z,15.82
2022-12-22T15:06:24.671Z,17.15
2022-12-22T15:08:53.550Z,19.48
2022-12-22T15:11:24.424Z,21.08
2022-12-22T15:13:54.461Z,11.30
2022-12-22T15:16:23.049Z,22.30
2022-12-22T15:18:51.590Z,15.77
2022-12-22T15:21:19.628Z,14.48
2022-12-22T15:23:47.334Z,16.38
2022-12-22T15:26:15.141Z,21.40
2022-12-22T15:28:42.186Z,23.63
2022-12-22T15:31:15.467Z,17.45
2022-12-22T15:33:43.843Z,20.80
2022-12-22T15:36:14.086Z,19.70
2022-12-22T15:38:42.753Z,22.48
2022-12-22T15:41:09.740Z,28.13
2022-12-22T15:46:25.882Z,36.45
2022-12-22T15:48:54.668Z,33.08
2022-12-22T15:51:25.848Z,36.17
2022-12-22T15:53:55.221Z,28.98
2022-12-22T15:56:25.300Z,29.30
2022-12-22T15:58:53.175Z,28.25
2022-12-22T16:01:20.842Z,39.42
2022-12-22T16:03:48.643Z,34.47
2022-12-22T16:06:19.827Z,29.05
2022-12-22T16:08:51.555Z,33.83
2022-12-22T16:11:19.000Z,29.88
2022-12-22T16:13:47.485Z,25.77
2022-12-22T16:16:14.833Z,35.65
2022-12-22T16:18:42.090Z,42.83
2022-12-22T16:21:17.190Z,40.75
2022-12-22T16:23:47.008Z,40.58
2022-12-22T16:26:20.143Z,44.58
2022-12-22T16:28:47.578Z,30.58
2022-12-22T16:31:23.910Z,43.95
2022-12-22T16:33:51.747Z,36.92
2022-12-22T16:36:19.715Z,36.67
2022-12-22T16:38:47.757Z,38.85
2022-12-22T16:41:25.029Z,42.25
2022-12-22T16:46:40.095Z,43.97
2022-12-22T16:49:09.327Z,39.45
2022-12-22T16:51:40.253Z,37.38
2022-12-22T16:54:07.519Z,49.03
2022-12-22T16:56:35.447Z,38.00
2022-12-22T16:59:04.790Z,54.53
2022-12-22T17:01:36.974Z,49.22
2022-12-22T17:04:28.875Z,55.72
2022-12-22T17:06:58.882Z,64.45
2022-12-22T17:09:43.999Z,45.63
2022-12-22T17:12:21.040Z,46.90
2022-12-22T17:14:49.341Z,64.53
2022-12-22T17:17:31.125Z,55.25
2022-12-22T17:20:00.115Z,54.05
2022-12-22T17:22:30.552Z,48.83
2022-12-22T17:25:02.624Z,59.92
2022-12-22T17:27:31.771Z,70.75
2022-12-22T17:30:03.471Z,68.40
2022-12-22T17:32:30.599Z,52.53
2022-12-22T17:34:58.424Z,61.60
2022-12-22T17:37:25.559Z,56.78
2022-12-22T17:39:59.915Z,53.00
2022-12-22T17:42:27.023Z,63.80
2022-12-22T17:44:54.078Z,68.30
2022-12-22T17:47:30.589Z,65.68
2022-12-22T17:49:59.590Z,53.67
2022-12-22T17:52:28.228Z,55.13
2022-12-22T17:54:55.536Z,62.50
2022-12-22T17:57:31.119Z,58.03
2022-12-22T17:59:58.248Z,62.63
2022-12-22T18:02:26.036Z,57.50
2022-12-22T18:04:53.632Z,64.15
2022-12-22T18:07:25.298Z,57.72
2022-12-22T18:09:59.050Z,68.57
2022-12-22T18:12:26.311Z,61.10
2022-12-22T18:14:53.577Z,60.10
2022-12-22T18:17:33.420Z,67.65
2022-12-22T18:20:02.762Z,57.80
2022-12-22T18:22:30.224Z,73.28
2022-12-22T18:24:57.782Z,54.92
2022-12-22T18:27:25.113Z,56.95
2022-12-22T18:29:52.230Z,52.97
2022-12-22T18:32:27.231Z,48.85
2022-12-22T18:34:54.749Z,58.17
2022-12-22T18:37:22.035Z,48.33
2022-12-22T18:39:49.036Z,57.67
2022-12-22T18:42:22.704Z,40.55
2022-12-22T18:44:51.361Z,41.35
2022-12-22T18:47:18.789Z,36.40
2022-12-22T18:49:46.430Z,39.42
2022-12-22T18:52:24.693Z,37.50
2022-12-22T18:54:51.716Z,43.88
2022-12-22T18:57:20.136Z,44.63
2022-12-22T18:59:50.269Z,47.17
2022-12-22T19:02:25.551Z,42.60
2022-12-22T19:04:53.959Z,38.13
2022-12-22T19:07:23.284Z,35.67
2022-12-22T19:09:53.613Z,26.90
2022-12-22T19:12:25.471Z,30.00
2022-12-22T19:14:57.405Z,25.10
2022-12-22T19:17:28.229Z,30.05
2022-12-22T19:19:56.063Z,24.23
2022-12-22T19:22:23.658Z,25.45
2022-12-22T19:24:51.622Z,26.05
2022-12-22T19:27:26.577Z,18.00
2022-12-22T19:30:03.048Z,20.00
2022-12-22T19:32:38.704Z,16.55
2022-12-22T19:35:17.784Z,25.75
2022-12-22T19:37:46.396Z,17.42
2022-12-22T19:40:15.303Z,14.38
2022-12-22T19:42:45.712Z,20.90
2022-12-22T19:45:22.292Z,23.60
2022-12-22T19:47:49.514Z,25.73
2022-12-22T19:50:18.531Z,21.15
2022-12-22T19:52:45.517Z,26.35
2022-12-22T19:55:12.766Z,24.83
2022-12-22T19:57:41.615Z,28.60
2022-12-22T20:00:15.483Z,15.95
2022-12-22T20:02:45.027Z,17.42
2022-12-22T20:05:24.063Z,20.52
2022-12-22T20:07:53.005Z,18.48
2022-12-22T20:10:22.104Z,22.77
2022-12-22T20:12:52.681Z,15.25
2022-12-22T20:15:22.019Z,17.25
2022-12-22T20:17:51.756Z,15.18
2022-12-22T20:20:21.707Z,14.95
2022-12-22T20:22:55.874Z,17.73
2022-12-22T20:25:26.740Z,14.32
2022-12-22T20:27:55.908Z,17.02
2022-12-22T20:30:30.585Z,18.50
2022-12-22T20:32:57.792Z,19.58
2022-12-22T20:35:25.059Z,18.02
2022-12-22T20:37:52.073Z,18.92
2022-12-22T20:40:29.412Z,22.27
2022-12-22T20:42:57.309Z,23.30
2022-12-22T20:45:29.678Z,18.48
2022-12-22T20:47:59.716Z,15.40
2022-12-22T20:50:30.441Z,19.65
2022-12-22T20:52:57.835Z,18.45
2022-12-22T20:55:27.237Z,16.23
2022-12-22T20:57:54.824Z,15.88
2022-12-22T21:00:26.668Z,14.90
2022-12-22T21:02:54.509Z,15.35
2022-12-22T21:05:22.236Z,17.00
2022-12-22T21:07:49.993Z,17.10
2022-12-22T21:10:19.986Z,16.67
2022-12-22T21:12:47.178Z,14.02
2022-12-22T21:15:31.842Z,16.38
2022-12-22T21:17:59.125Z,13.68
2022-12-22T21:20:29.921Z,12.05
2022-12-22T21:22:56.994Z,13.60
2022-12-22T21:25:24.918Z,16.30
2022-12-22T21:27:52.562Z,17.42
2022-12-22T21:30:23.569Z,8.13
2022-12-22T21:32:51.539Z,10.55
2022-12-22T21:35:31.410Z,15.52
2022-12-22T21:37:59.456Z,11.25
2022-12-22T21:40:29.296Z,13.52
2022-12-22T21:42:59.310Z,15.90
2022-12-22T21:45:30.807Z,19.52
2022-12-22T21:48:01.259Z,18.35
2022-12-22T21:50:31.671Z,13.32
2022-12-22T21:52:59.866Z,15.10
2022-12-22T21:55:37.278Z,15.07
2022-12-22T21:58:05.732Z,13.57
2022-12-22T22:00:34.525Z,8.88
2022-12-22T22:03:04.568Z,12.85
2022-12-22T22:05:34.551Z,9.45
2022-12-22T22:08:03.367Z,14.38
2022-12-22T22:10:35.872Z,11.60
2022-12-22T22:13:03.616Z,14.32
2022-12-22T22:15:31.965Z,10.93
2022-12-22T22:18:04.694Z,10.90
2022-12-22T22:20:34.301Z,13.30
2022-12-22T22:23:01.622Z,13.63
2022-12-22T22:25:28.877Z,13.15
2022-12-22T22:27:59.877Z,15.48
2022-12-22T22:30:27.449Z,13.15
2022-12-22T22:32:57.669Z,13.90
2022-12-22T22:35:27.010Z,16.70
2022-12-22T22:37:55.271Z,15.20
2022-12-22T22:40:23.645Z,10.02
2022-12-22T22:42:50.773Z,13.55
2022-12-22T22:45:24.299Z,10.38
2022-12-22T22:47:53.097Z,14.02
2022-12-22T22:50:21.404Z,13.80
2022-12-22T22:52:49.412Z,9.65
2022-12-22T22:55:17.194Z,10.85
2022-12-22T22:57:44.498Z,8.80
2022-12-22T23:00:13.768Z,11.48
2022-12-22T23:02:41.552Z,14.85
2022-12-22T23:05:14.073Z,11.60
2022-12-22T23:07:44.279Z,15.70
2022-12-22T23:10:11.468Z,11.18
2022-12-22T23:12:39.278Z,13.02
2022-12-22T23:15:06.913Z,12.52
2022-12-22T23:17:34.061Z,14.45
2022-12-22T23:20:01.027Z,18.50
2022-12-22T23:22:28.364Z,11.27
2022-12-22T23:24:55.680Z,15.65
2022-12-22T23:27:23.555Z,18.65
2022-12-22T23:29:50.465Z,14.07
2022-12-22T23:32:17.731Z,15.93
2022-12-22T23:34:44.791Z,14.15
2022-12-22T23:37:19.401Z,17.77
2022-12-22T23:39:47.120Z,13.70
2022-12-22T23:42:14.251Z,18.27
2022-12-22T23:44:41.463Z,15.60
2022-12-22T23:47:08.690Z,13.82
2022-12-22T23:49:35.760Z,18.38
2022-12-22T23:52:03.048Z,16.80
2022-12-22T23:54:30.513Z,18.80
2022-12-22T23:56:58.068Z,20.50
2022-12-22T23:59:25.302Z,20.52
